sensor_id;sensor_type;location;lat;lon;timestamp;pressure;altitude;pressure_sealevel;temperature;humidity
42105;BME280;61464;51.472;5.712;2022-10-30T00:01:06;101448.47;;;14.53;95.52
42105;BME280;61464;51.472;5.712;2022-10-30T00:03:32;101443.78;;;14.57;95.02
42105;BME280;61464;51.472;5.712;2022-10-30T00:05:58;101442.31;;;14.46;95.34
42105;BME280;61464;51.472;5.712;2022-10-30T00:08:23;101440.16;;;14.49;95.29
42105;BME280;61464;51.472;5.712;2022-10-30T00:10:50;101439.06;;;14.36;95.89
42105;BME280;61464;51.472;5.712;2022-10-30T00:13:17;101443.00;;;14.32;95.94
42105;BME280;61464;51.472;5.712;2022-10-30T00:16:04;101443.13;;;14.38;95.82
42105;BME280;61464;51.472;5.712;2022-10-30T00:18:31;101439.88;;;14.28;96.07
42105;BME280;61464;51.472;5.712;2022-10-30T00:21:03;101434.13;;;14.41;95.88
42105;BME280;61464;51.472;5.712;2022-10-30T00:23:29;101456.72;;;14.25;96.53
42105;BME280;61464;51.472;5.712;2022-10-30T00:25:55;101451.94;;;14.29;96.37
42105;BME280;61464;51.472;5.712;2022-10-30T00:28:21;101456.03;;;14.32;96.07
42105;BME280;61464;51.472;5.712;2022-10-30T00:30:47;101449.84;;;14.16;96.74
42105;BME280;61464;51.472;5.712;2022-10-30T00:33:12;101453.94;;;14.11;97.17
42105;BME280;61464;51.472;5.712;2022-10-30T00:35:38;101459.81;;;14.04;97.81
42105;BME280;61464;51.472;5.712;2022-10-30T00:38:04;101457.19;;;14.21;96.72
42105;BME280;61464;51.472;5.712;2022-10-30T00:40:30;101454.25;;;14.16;96.79
42105;BME280;61464;51.472;5.712;2022-10-30T00:42:56;101452.28;;;14.26;96.21
42105;BME280;61464;51.472;5.712;2022-10-30T00:45:21;101437.94;;;14.22;96.01
42105;BME280;61464;51.472;5.712;2022-10-30T00:47:53;101439.09;;;14.11;96.58
42105;BME280;61464;51.472;5.712;2022-10-30T00:50:34;101433.03;;;14.11;96.65
42105;BME280;61464;51.472;5.712;2022-10-30T00:53:09;101436.94;;;14.15;96.50
42105;BME280;61464;51.472;5.712;2022-10-30T00:55:41;101440.56;;;13.97;96.79
42105;BME280;61464;51.472;5.712;2022-10-30T00:58:11;101436.31;;;14.13;96.99
42105;BME280;61464;51.472;5.712;2022-10-30T01:00:41;101441.53;;;14.13;96.70
42105;BME280;61464;51.472;5.712;2022-10-30T01:03:09;101438.28;;;14.02;96.83
42105;BME280;61464;51.472;5.712;2022-10-30T01:05:35;101443.50;;;13.94;97.49
42105;BME280;61464;51.472;5.712;2022-10-30T01:08:01;101440.56;;;13.89;97.91
42105;BME280;61464;51.472;5.712;2022-10-30T01:10:27;101434.06;;;13.85;98.78
42105;BME280;61464;51.472;5.712;2022-10-30T01:12:54;101427.69;;;13.79;98.15
42105;BME280;61464;51.472;5.712;2022-10-30T01:15:34;101433.56;;;13.89;98.07
42105;BME280;61464;51.472;5.712;2022-10-30T01:24:48;101437.47;;;13.69;99.07
42105;BME280;61464;51.472;5.712;2022-10-30T01:27:57;101442.03;;;13.59;100.00
42105;BME280;61464;51.472;5.712;2022-10-30T01:36:59;101443.97;;;13.57;100.00
42105;BME280;61464;51.472;5.712;2022-10-30T01:39:38;101450.16;;;13.39;100.00
42105;BME280;61464;51.472;5.712;2022-10-30T01:42:51;101454.53;;;13.39;100.00
42105;BME280;61464;51.472;5.712;2022-10-30T02:00:12;101451.16;;;13.04;100.00
42105;BME280;61464;51.472;5.712;2022-10-30T02:02:40;101445.13;;;13.03;100.00
42105;BME280;61464;51.472;5.712;2022-10-30T02:05:09;101442.50;;;13.03;100.00
42105;BME280;61464;51.472;5.712;2022-10-30T02:07:36;101447.00;;;13.27;100.00
42105;BME280;61464;51.472;5.712;2022-10-30T02:10:04;101447.13;;;13.18;100.00
42105;BME280;61464;51.472;5.712;2022-10-30T02:12:30;101451.03;;;13.22;100.00
42105;BME280;61464;51.472;5.712;2022-10-30T02:14:59;101445.69;;;13.23;100.00
42105;BME280;61464;51.472;5.712;2022-10-30T02:17:25;101448.41;;;13.14;100.00
42105;BME280;61464;51.472;5.712;2022-10-30T02:19:51;101461.16;;;13.17;100.00
42105;BME280;61464;51.472;5.712;2022-10-30T02:22:18;101458.16;;;13.03;100.00
42105;BME280;61464;51.472;5.712;2022-10-30T02:24:44;101459.94;;;13.03;100.00
42105;BME280;61464;51.472;5.712;2022-10-30T02:27:10;101461.72;;;12.94;100.00
42105;BME280;61464;51.472;5.712;2022-10-30T02:29:36;101466.22;;;12.84;100.00
42105;BME280;61464;51.472;5.712;2022-10-30T02:32:02;101460.16;;;12.75;100.00
42105;BME280;61464;51.472;5.712;2022-10-30T02:34:28;101463.38;;;12.69;100.00
42105;BME280;61464;51.472;5.712;2022-10-30T02:36:54;101464.66;;;12.65;100.00
42105;BME280;61464;51.472;5.712;2022-10-30T02:39:20;101456.75;;;12.48;100.00
42105;BME280;61464;51.472;5.712;2022-10-30T02:41:46;101459.00;;;12.43;100.00
42105;BME280;61464;51.472;5.712;2022-10-30T02:44:12;101463.13;;;12.28;100.00
42105;BME280;61464;51.472;5.712;2022-10-30T02:46:38;101458.91;;;12.27;100.00
42105;BME280;61464;51.472;5.712;2022-10-30T02:49:04;101466.34;;;12.22;100.00
42105;BME280;61464;51.472;5.712;2022-10-30T02:51:31;101465.91;;;12.26;100.00
42105;BME280;61464;51.472;5.712;2022-10-30T02:53:59;101461.97;;;12.22;100.00
42105;BME280;61464;51.472;5.712;2022-10-30T02:56:25;101466.56;;;12.28;100.00
42105;BME280;61464;51.472;5.712;2022-10-30T02:58:51;101472.22;;;12.24;100.00
42105;BME280;61464;51.472;5.712;2022-10-30T03:01:18;101464.34;;;12.16;100.00
42105;BME280;61464;51.472;5.712;2022-10-30T03:03:45;101472.09;;;12.07;100.00
42105;BME280;61464;51.472;5.712;2022-10-30T03:06:14;101464.06;;;12.19;100.00
42105;BME280;61464;51.472;5.712;2022-10-30T03:08:42;101471.72;;;12.02;100.00
42105;BME280;61464;51.472;5.712;2022-10-30T03:11:12;101466.75;;;11.91;100.00
42105;BME280;61464;51.472;5.712;2022-10-30T03:13:40;101466.47;;;11.94;100.00
42105;BME280;61464;51.472;5.712;2022-10-30T03:16:26;101459.47;;;11.95;100.00
42105;BME280;61464;51.472;5.712;2022-10-30T03:18:57;101464.97;;;11.92;100.00
42105;BME280;61464;51.472;5.712;2022-10-30T03:21:25;101468.06;;;11.95;100.00
42105;BME280;61464;51.472;5.712;2022-10-30T03:23:52;101466.34;;;11.86;100.00
42105;BME280;61464;51.472;5.712;2022-10-30T03:26:19;101476.47;;;12.07;100.00
42105;BME280;61464;51.472;5.712;2022-10-30T03:28:45;101466.22;;;12.05;100.00
42105;BME280;61464;51.472;5.712;2022-10-30T03:31:15;101469.19;;;12.11;100.00
42105;BME280;61464;51.472;5.712;2022-10-30T03:33:42;101465.31;;;12.15;100.00
42105;BME280;61464;51.472;5.712;2022-10-30T03:36:10;101470.25;;;12.26;100.00
42105;BME280;61464;51.472;5.712;2022-10-30T03:38:36;101460.09;;;12.33;100.00
42105;BME280;61464;51.472;5.712;2022-10-30T03:41:03;101468.75;;;12.41;100.00
42105;BME280;61464;51.472;5.712;2022-10-30T03:43:29;101457.31;;;12.34;100.00
42105;BME280;61464;51.472;5.712;2022-10-30T03:45:56;101462.75;;;12.41;100.00
42105;BME280;61464;51.472;5.712;2022-10-30T03:48:25;101451.25;;;12.52;100.00
42105;BME280;61464;51.472;5.712;2022-10-30T03:50:58;101458.34;;;12.41;100.00
42105;BME280;61464;51.472;5.712;2022-10-30T03:53:25;101468.63;;;12.43;100.00
42105;BME280;61464;51.472;5.712;2022-10-30T03:55:58;101453.53;;;12.55;100.00
42105;BME280;61464;51.472;5.712;2022-10-30T03:58:25;101455.38;;;12.36;100.00
42105;BME280;61464;51.472;5.712;2022-10-30T04:00:51;101453.03;;;12.51;100.00
42105;BME280;61464;51.472;5.712;2022-10-30T04:03:17;101451.09;;;12.53;100.00
42105;BME280;61464;51.472;5.712;2022-10-30T04:05:43;101456.59;;;12.50;100.00
42105;BME280;61464;51.472;5.712;2022-10-30T04:08:13;101456.25;;;12.45;100.00
42105;BME280;61464;51.472;5.712;2022-10-30T04:10:43;101450.69;;;12.40;100.00
42105;BME280;61464;51.472;5.712;2022-10-30T04:13:11;101450.06;;;12.46;100.00
42105;BME280;61464;51.472;5.712;2022-10-30T04:15:37;101445.19;;;12.43;100.00
42105;BME280;61464;51.472;5.712;2022-10-30T04:18:03;101439.13;;;12.42;100.00
42105;BME280;61464;51.472;5.712;2022-10-30T04:20:30;101448.50;;;12.53;100.00
42105;BME280;61464;51.472;5.712;2022-10-30T04:22:57;101451.44;;;12.58;100.00
42105;BME280;61464;51.472;5.712;2022-10-30T04:25:25;101450.84;;;12.73;100.00
42105;BME280;61464;51.472;5.712;2022-10-30T04:27:51;101455.13;;;12.74;100.00
42105;BME280;61464;51.472;5.712;2022-10-30T04:30:18;101457.91;;;12.80;100.00
42105;BME280;61464;51.472;5.712;2022-10-30T04:32:55;101465.38;;;12.83;100.00
42105;BME280;61464;51.472;5.712;2022-10-30T04:35:24;101474.34;;;12.81;100.00
42105;BME280;61464;51.472;5.712;2022-10-30T04:38:03;101462.88;;;12.65;100.00
42105;BME280;61464;51.472;5.712;2022-10-30T04:40:32;101477.47;;;12.58;100.00
42105;BME280;61464;51.472;5.712;2022-10-30T04:42:59;101465.59;;;12.56;100.00
42105;BME280;61464;51.472;5.712;2022-10-30T04:45:25;101469.00;;;12.30;100.00
42105;BME280;61464;51.472;5.712;2022-10-30T04:47:52;101455.72;;;12.15;100.00
42105;BME280;61464;51.472;5.712;2022-10-30T04:50:18;101456.94;;;12.03;100.00
42105;BME280;61464;51.472;5.712;2022-10-30T04:52:44;101450.03;;;11.94;100.00
42105;BME280;61464;51.472;5.712;2022-10-30T04:55:10;101463.91;;;11.84;100.00
42105;BME280;61464;51.472;5.712;2022-10-30T04:57:37;101454.09;;;11.78;100.00
42105;BME280;61464;51.472;5.712;2022-10-30T05:00:07;101454.31;;;11.67;100.00
42105;BME280;61464;51.472;5.712;2022-10-30T05:02:36;101454.41;;;11.57;100.00
42105;BME280;61464;51.472;5.712;2022-10-30T05:05:03;101449.91;;;11.50;100.00
42105;BME280;61464;51.472;5.712;2022-10-30T05:07:29;101456.00;;;11.58;100.00
42105;BME280;61464;51.472;5.712;2022-10-30T05:09:55;101462.41;;;11.64;100.00
42105;BME280;61464;51.472;5.712;2022-10-30T05:12:20;101449.66;;;11.53;100.00
42105;BME280;61464;51.472;5.712;2022-10-30T05:14:46;101452.00;;;11.46;100.00
42105;BME280;61464;51.472;5.712;2022-10-30T05:17:12;101445.91;;;11.37;100.00
42105;BME280;61464;51.472;5.712;2022-10-30T05:19:38;101445.38;;;11.34;100.00
42105;BME280;61464;51.472;5.712;2022-10-30T05:22:04;101438.03;;;11.29;100.00
42105;BME280;61464;51.472;5.712;2022-10-30T05:24:30;101442.69;;;11.25;100.00
42105;BME280;61464;51.472;5.712;2022-10-30T05:26:55;101435.19;;;11.22;100.00
42105;BME280;61464;51.472;5.712;2022-10-30T05:29:21;101436.59;;;11.17;100.00
42105;BME280;61464;51.472;5.712;2022-10-30T05:31:47;101434.78;;;11.17;100.00
42105;BME280;61464;51.472;5.712;2022-10-30T05:34:13;101430.84;;;11.13;100.00
42105;BME280;61464;51.472;5.712;2022-10-30T05:36:38;101433.19;;;11.16;100.00
42105;BME280;61464;51.472;5.712;2022-10-30T05:39:04;101426.06;;;11.18;100.00
42105;BME280;61464;51.472;5.712;2022-10-30T05:41:30;101429.69;;;11.07;100.00
42105;BME280;61464;51.472;5.712;2022-10-30T05:43:56;101443.44;;;11.36;100.00
42105;BME280;61464;51.472;5.712;2022-10-30T05:46:21;101444.44;;;11.53;100.00
42105;BME280;61464;51.472;5.712;2022-10-30T05:48:47;101437.34;;;11.27;100.00
42105;BME280;61464;51.472;5.712;2022-10-30T05:51:13;101439.50;;;11.14;100.00
42105;BME280;61464;51.472;5.712;2022-10-30T05:53:39;101447.50;;;11.20;100.00
42105;BME280;61464;51.472;5.712;2022-10-30T05:56:05;101441.50;;;11.20;100.00
42105;BME280;61464;51.472;5.712;2022-10-30T05:58:31;101441.06;;;11.24;100.00
42105;BME280;61464;51.472;5.712;2022-10-30T06:00:56;101445.06;;;11.19;100.00
42105;BME280;61464;51.472;5.712;2022-10-30T06:03:22;101454.16;;;11.05;100.00
42105;BME280;61464;51.472;5.712;2022-10-30T06:05:48;101437.78;;;10.95;100.00
42105;BME280;61464;51.472;5.712;2022-10-30T06:08:14;101449.78;;;11.05;100.00
42105;BME280;61464;51.472;5.712;2022-10-30T06:10:41;101439.72;;;10.93;100.00
42105;BME280;61464;51.472;5.712;2022-10-30T06:13:08;101443.56;;;10.88;100.00
42105;BME280;61464;51.472;5.712;2022-10-30T06:15:34;101444.53;;;10.87;100.00
42105;BME280;61464;51.472;5.712;2022-10-30T06:18:00;101451.91;;;10.82;100.00
42105;BME280;61464;51.472;5.712;2022-10-30T06:20:29;101453.34;;;10.77;100.00
42105;BME280;61464;51.472;5.712;2022-10-30T06:23:04;101448.28;;;10.75;100.00
42105;BME280;61464;51.472;5.712;2022-10-30T06:25:33;101450.75;;;10.67;100.00
42105;BME280;61464;51.472;5.712;2022-10-30T06:28:00;101458.31;;;10.60;100.00
42105;BME280;61464;51.472;5.712;2022-10-30T06:30:27;101455.44;;;10.54;100.00
42105;BME280;61464;51.472;5.712;2022-10-30T06:32:57;101451.09;;;10.54;100.00
42105;BME280;61464;51.472;5.712;2022-10-30T06:35:24;101452.16;;;10.52;100.00
42105;BME280;61464;51.472;5.712;2022-10-30T06:37:51;101447.53;;;10.45;100.00
42105;BME280;61464;51.472;5.712;2022-10-30T06:40:18;101447.81;;;10.42;100.00
42105;BME280;61464;51.472;5.712;2022-10-30T06:42:46;101451.78;;;10.46;100.00
42105;BME280;61464;51.472;5.712;2022-10-30T06:45:14;101441.41;;;10.46;100.00
42105;BME280;61464;51.472;5.712;2022-10-30T06:47:40;101446.56;;;10.56;100.00
42105;BME280;61464;51.472;5.712;2022-10-30T06:50:10;101441.50;;;10.55;100.00
42105;BME280;61464;51.472;5.712;2022-10-30T06:52:36;101439.19;;;10.52;100.00
42105;BME280;61464;51.472;5.712;2022-10-30T06:55:02;101437.13;;;10.55;100.00
42105;BME280;61464;51.472;5.712;2022-10-30T06:57:28;101435.31;;;10.65;100.00
42105;BME280;61464;51.472;5.712;2022-10-30T06:59:54;101437.09;;;10.65;100.00
42105;BME280;61464;51.472;5.712;2022-10-30T07:02:20;101441.63;;;10.63;100.00
42105;BME280;61464;51.472;5.712;2022-10-30T07:04:46;101432.72;;;10.65;100.00
42105;BME280;61464;51.472;5.712;2022-10-30T07:07:13;101436.97;;;10.66;100.00
42105;BME280;61464;51.472;5.712;2022-10-30T07:09:40;101427.63;;;10.74;100.00
42105;BME280;61464;51.472;5.712;2022-10-30T07:12:06;101431.56;;;10.78;100.00
42105;BME280;61464;51.472;5.712;2022-10-30T07:14:33;101428.03;;;10.79;100.00
42105;BME280;61464;51.472;5.712;2022-10-30T07:16:59;101432.34;;;10.88;100.00
42105;BME280;61464;51.472;5.712;2022-10-30T07:19:25;101432.00;;;11.01;100.00
42105;BME280;61464;51.472;5.712;2022-10-30T07:21:51;101431.88;;;11.02;100.00
42105;BME280;61464;51.472;5.712;2022-10-30T07:24:16;101433.44;;;11.13;100.00
42105;BME280;61464;51.472;5.712;2022-10-30T07:26:42;101438.03;;;11.29;100.00
42105;BME280;61464;51.472;5.712;2022-10-30T07:29:08;101443.69;;;11.42;100.00
42105;BME280;61464;51.472;5.712;2022-10-30T07:31:34;101449.66;;;11.53;100.00
42105;BME280;61464;51.472;5.712;2022-10-30T07:33:59;101443.47;;;11.54;100.00
42105;BME280;61464;51.472;5.712;2022-10-30T07:36:25;101440.88;;;11.54;100.00
42105;BME280;61464;51.472;5.712;2022-10-30T07:38:51;101426.38;;;11.69;100.00
42105;BME280;61464;51.472;5.712;2022-10-30T07:41:18;101435.25;;;11.94;100.00
42105;BME280;61464;51.472;5.712;2022-10-30T07:43:45;101428.56;;;12.18;100.00
42105;BME280;61464;51.472;5.712;2022-10-30T07:46:11;101436.44;;;12.26;100.00
42105;BME280;61464;51.472;5.712;2022-10-30T07:48:38;101442.97;;;12.30;100.00
42105;BME280;61464;51.472;5.712;2022-10-30T07:51:04;101433.78;;;12.44;100.00
42105;BME280;61464;51.472;5.712;2022-10-30T07:53:30;101441.00;;;12.58;100.00
42105;BME280;61464;51.472;5.712;2022-10-30T07:55:56;101439.47;;;12.74;100.00
42105;BME280;61464;51.472;5.712;2022-10-30T07:58:22;101439.56;;;12.90;100.00
42105;BME280;61464;51.472;5.712;2022-10-30T08:00:48;101434.72;;;13.12;100.00
42105;BME280;61464;51.472;5.712;2022-10-30T08:03:14;101435.38;;;13.14;100.00
42105;BME280;61464;51.472;5.712;2022-10-30T08:05:40;101434.44;;;13.23;100.00
42105;BME280;61464;51.472;5.712;2022-10-30T08:08:07;101429.53;;;13.20;100.00
42105;BME280;61464;51.472;5.712;2022-10-30T08:10:34;101431.00;;;13.22;100.00
42105;BME280;61464;51.472;5.712;2022-10-30T08:13:00;101438.66;;;13.24;100.00
42105;BME280;61464;51.472;5.712;2022-10-30T08:15:26;101438.72;;;13.40;100.00
42105;BME280;61464;51.472;5.712;2022-10-30T08:17:52;101433.03;;;13.45;100.00
42105;BME280;61464;51.472;5.712;2022-10-30T08:20:22;101441.72;;;13.62;100.00
42105;BME280;61464;51.472;5.712;2022-10-30T08:22:51;101436.50;;;13.62;100.00
42105;BME280;61464;51.472;5.712;2022-10-30T08:25:19;101438.28;;;13.61;100.00
42105;BME280;61464;51.472;5.712;2022-10-30T08:27:58;101440.72;;;13.63;100.00
42105;BME280;61464;51.472;5.712;2022-10-30T08:30:26;101433.56;;;13.65;100.00
42105;BME280;61464;51.472;5.712;2022-10-30T08:32:57;101433.25;;;13.76;100.00
42105;BME280;61464;51.472;5.712;2022-10-30T08:35:24;101430.94;;;13.81;100.00
42105;BME280;61464;51.472;5.712;2022-10-30T08:37:54;101429.16;;;13.90;100.00
42105;BME280;61464;51.472;5.712;2022-10-30T08:40:20;101432.91;;;13.96;100.00
42105;BME280;61464;51.472;5.712;2022-10-30T08:42:56;101414.78;;;14.02;100.00
42105;BME280;61464;51.472;5.712;2022-10-30T08:45:23;101432.25;;;14.10;100.00
42105;BME280;61464;51.472;5.712;2022-10-30T08:48:00;101432.72;;;14.14;100.00
42105;BME280;61464;51.472;5.712;2022-10-30T08:50:28;101441.69;;;14.19;100.00
42105;BME280;61464;51.472;5.712;2022-10-30T08:52:54;101436.94;;;14.31;100.00
42105;BME280;61464;51.472;5.712;2022-10-30T08:55:20;101424.19;;;14.44;100.00
42105;BME280;61464;51.472;5.712;2022-10-30T08:57:46;101441.81;;;14.59;100.00
42105;BME280;61464;51.472;5.712;2022-10-30T09:00:12;101433.78;;;14.68;100.00
42105;BME280;61464;51.472;5.712;2022-10-30T09:02:38;101429.88;;;14.64;100.00
42105;BME280;61464;51.472;5.712;2022-10-30T09:05:06;101428.53;;;14.77;100.00
42105;BME280;61464;51.472;5.712;2022-10-30T09:07:32;101431.25;;;14.83;100.00
42105;BME280;61464;51.472;5.712;2022-10-30T09:09:58;101428.28;;;14.86;99.48
42105;BME280;61464;51.472;5.712;2022-10-30T09:12:24;101436.84;;;15.12;99.18
42105;BME280;61464;51.472;5.712;2022-10-30T09:14:50;101437.44;;;15.22;97.44
42105;BME280;61464;51.472;5.712;2022-10-30T09:17:15;101432.66;;;15.25;97.10
42105;BME280;61464;51.472;5.712;2022-10-30T09:19:41;101434.94;;;15.28;97.36
42105;BME280;61464;51.472;5.712;2022-10-30T09:22:07;101428.38;;;15.33;96.46
42105;BME280;61464;51.472;5.712;2022-10-30T09:24:33;101431.88;;;15.48;96.04
42105;BME280;61464;51.472;5.712;2022-10-30T09:26:58;101437.81;;;15.65;94.63
42105;BME280;61464;51.472;5.712;2022-10-30T09:29:25;101428.97;;;15.66;93.58
42105;BME280;61464;51.472;5.712;2022-10-30T09:31:50;101422.28;;;15.86;92.77
42105;BME280;61464;51.472;5.712;2022-10-30T09:34:16;101424.13;;;16.01;92.64
42105;BME280;61464;51.472;5.712;2022-10-30T09:36:42;101427.38;;;16.18;90.72
42105;BME280;61464;51.472;5.712;2022-10-30T09:39:09;101425.16;;;16.15;90.51
42105;BME280;61464;51.472;5.712;2022-10-30T09:42:22;101420.47;;;16.40;89.49
42105;BME280;61464;51.472;5.712;2022-10-30T09:48:33;101416.41;;;16.82;88.07
42105;BME280;61464;51.472;5.712;2022-10-30T09:57:19;101433.19;;;17.24;84.88
42105;BME280;61464;51.472;5.712;2022-10-30T10:00:06;101429.78;;;17.23;84.54
42105;BME280;61464;51.472;5.712;2022-10-30T10:05:41;101439.84;;;17.41;83.47
42105;BME280;61464;51.472;5.712;2022-10-30T10:08:16;101452.84;;;17.49;83.25
42105;BME280;61464;51.472;5.712;2022-10-30T10:10:47;101442.00;;;17.59;83.21
42105;BME280;61464;51.472;5.712;2022-10-30T10:18:50;101453.22;;;17.68;81.59
42105;BME280;61464;51.472;5.712;2022-10-30T10:21:25;101451.78;;;17.87;81.28
42105;BME280;61464;51.472;5.712;2022-10-30T10:23:58;101434.41;;;17.86;81.24
42105;BME280;61464;51.472;5.712;2022-10-30T10:27:10;101447.09;;;18.10;80.68
42105;BME280;61464;51.472;5.712;2022-10-30T10:36:09;101422.47;;;18.12;80.30
42105;BME280;61464;51.472;5.712;2022-10-30T10:39:03;101424.66;;;18.43;79.72
42105;BME280;61464;51.472;5.712;2022-10-30T10:42:32;101416.03;;;18.56;79.10
42105;BME280;61464;51.472;5.712;2022-10-30T10:45:17;101419.25;;;18.51;78.45
42105;BME280;61464;51.472;5.712;2022-10-30T10:51:00;101418.69;;;18.21;79.16
42105;BME280;61464;51.472;5.712;2022-10-30T10:56:06;101427.53;;;18.13;79.59
42105;BME280;61464;51.472;5.712;2022-10-30T10:58:50;101434.69;;;18.26;79.36
42105;BME280;61464;51.472;5.712;2022-10-30T11:01:40;101424.56;;;18.23;79.40
42105;BME280;61464;51.472;5.712;2022-10-30T11:06:55;101423.38;;;18.60;77.33
42105;BME280;61464;51.472;5.712;2022-10-30T11:09:23;101415.69;;;18.72;77.21
42105;BME280;61464;51.472;5.712;2022-10-30T11:11:53;101416.63;;;18.93;75.76
42105;BME280;61464;51.472;5.712;2022-10-30T11:14:22;101415.00;;;18.92;76.02
42105;BME280;61464;51.472;5.712;2022-10-30T11:17:02;101427.22;;;19.19;74.46
42105;BME280;61464;51.472;5.712;2022-10-30T11:19:31;101420.16;;;19.40;73.41
42105;BME280;61464;51.472;5.712;2022-10-30T11:21:58;101416.50;;;19.27;74.36
42105;BME280;61464;51.472;5.712;2022-10-30T11:24:34;101413.25;;;19.19;74.78
42105;BME280;61464;51.472;5.712;2022-10-30T11:30:00;101416.31;;;19.36;74.53
42105;BME280;61464;51.472;5.712;2022-10-30T11:32:33;101418.38;;;19.40;74.82
42105;BME280;61464;51.472;5.712;2022-10-30T11:35:14;101413.06;;;19.20;74.70
42105;BME280;61464;51.472;5.712;2022-10-30T11:37:43;101409.59;;;19.13;75.52
42105;BME280;61464;51.472;5.712;2022-10-30T11:40:17;101406.16;;;19.13;75.09
42105;BME280;61464;51.472;5.712;2022-10-30T11:42:58;101404.97;;;19.22;74.17
42105;BME280;61464;51.472;5.712;2022-10-30T11:45:45;101403.56;;;19.39;74.54
42105;BME280;61464;51.472;5.712;2022-10-30T11:48:26;101399.91;;;19.34;74.11
42105;BME280;61464;51.472;5.712;2022-10-30T11:50:58;101400.53;;;19.49;74.15
42105;BME280;61464;51.472;5.712;2022-10-30T11:53:45;101395.69;;;19.73;73.28
42105;BME280;61464;51.472;5.712;2022-10-30T11:56:19;101393.47;;;19.96;72.73
42105;BME280;61464;51.472;5.712;2022-10-30T11:58:52;101393.88;;;19.80;72.58
42105;BME280;61464;51.472;5.712;2022-10-30T12:01:25;101394.47;;;19.82;72.59
42105;BME280;61464;51.472;5.712;2022-10-30T12:03:54;101396.94;;;19.83;72.30
42105;BME280;61464;51.472;5.712;2022-10-30T12:09:14;101399.34;;;19.98;71.82
42105;BME280;61464;51.472;5.712;2022-10-30T12:11:44;101397.09;;;19.88;72.25
42105;BME280;61464;51.472;5.712;2022-10-30T12:14:21;101385.50;;;20.16;72.31
42105;BME280;61464;51.472;5.712;2022-10-30T12:16:50;101382.13;;;19.96;72.04
42105;BME280;61464;51.472;5.712;2022-10-30T12:19:19;101387.31;;;20.16;71.75
42105;BME280;61464;51.472;5.712;2022-10-30T12:21:53;101382.28;;;20.14;71.48
42105;BME280;61464;51.472;5.712;2022-10-30T12:24:36;101377.63;;;20.03;72.49
42105;BME280;61464;51.472;5.712;2022-10-30T12:27:12;101386.38;;;19.90;72.48
42105;BME280;61464;51.472;5.712;2022-10-30T12:30:09;101378.69;;;19.75;73.31
42105;BME280;61464;51.472;5.712;2022-10-30T12:35:56;101389.19;;;19.68;73.60
42105;BME280;61464;51.472;5.712;2022-10-30T12:38:44;101388.00;;;19.78;74.01
42105;BME280;61464;51.472;5.712;2022-10-30T12:41:38;101380.69;;;19.86;74.10
42105;BME280;61464;51.472;5.712;2022-10-30T12:44:25;101368.94;;;19.89;74.53
42105;BME280;61464;51.472;5.712;2022-10-30T12:50:01;101367.28;;;20.01;73.27
42105;BME280;61464;51.472;5.712;2022-10-30T12:52:40;101367.69;;;20.05;73.01
42105;BME280;61464;51.472;5.712;2022-10-30T12:55:19;101360.00;;;20.10;73.56
42105;BME280;61464;51.472;5.712;2022-10-30T13:01:32;101373.91;;;20.24;73.19
42105;BME280;61464;51.472;5.712;2022-10-30T13:04:12;101368.16;;;20.54;71.82
42105;BME280;61464;51.472;5.712;2022-10-30T13:07:09;101372.81;;;20.58;72.40
42105;BME280;61464;51.472;5.712;2022-10-30T13:10:21;101361.22;;;20.53;72.71
42105;BME280;61464;51.472;5.712;2022-10-30T13:12:57;101363.31;;;20.89;71.38
42105;BME280;61464;51.472;5.712;2022-10-30T13:15:32;101366.97;;;21.20;70.59
42105;BME280;61464;51.472;5.712;2022-10-30T13:18:05;101359.84;;;21.27;69.51
42105;BME280;61464;51.472;5.712;2022-10-30T13:20:32;101363.94;;;21.16;69.83
42105;BME280;61464;51.472;5.712;2022-10-30T13:23:17;101357.13;;;20.70;71.05
42105;BME280;61464;51.472;5.712;2022-10-30T13:26:34;101355.69;;;20.74;71.18
42105;BME280;61464;51.472;5.712;2022-10-30T13:29:36;101353.84;;;20.75;71.91
42105;BME280;61464;51.472;5.712;2022-10-30T13:35:29;101356.66;;;20.35;72.92
42105;BME280;61464;51.472;5.712;2022-10-30T13:42:01;101352.22;;;20.22;73.28
42105;BME280;61464;51.472;5.712;2022-10-30T13:50:20;101363.22;;;20.12;71.66
42105;BME280;61464;51.472;5.712;2022-10-30T13:52:54;101352.69;;;20.05;69.23
42105;BME280;61464;51.472;5.712;2022-10-30T13:55:28;101357.19;;;19.92;67.28
42105;BME280;61464;51.472;5.712;2022-10-30T14:01:04;101364.47;;;19.83;67.32
42105;BME280;61464;51.472;5.712;2022-10-30T14:06:40;101362.25;;;19.60;67.99
42105;BME280;61464;51.472;5.712;2022-10-30T14:11:44;101359.63;;;19.60;68.46
42105;BME280;61464;51.472;5.712;2022-10-30T14:14:29;101370.34;;;19.58;68.77
42105;BME280;61464;51.472;5.712;2022-10-30T14:17:12;101367.09;;;19.56;69.10
42105;BME280;61464;51.472;5.712;2022-10-30T14:22:29;101371.56;;;19.56;69.38
42105;BME280;61464;51.472;5.712;2022-10-30T14:24:56;101365.31;;;19.57;69.54
42105;BME280;61464;51.472;5.712;2022-10-30T14:27:32;101372.38;;;19.69;68.88
42105;BME280;61464;51.472;5.712;2022-10-30T14:29:59;101368.31;;;19.60;69.09
42105;BME280;61464;51.472;5.712;2022-10-30T14:40:46;101384.34;;;19.85;68.82
42105;BME280;61464;51.472;5.712;2022-10-30T14:43:35;101382.50;;;19.93;68.06
42105;BME280;61464;51.472;5.712;2022-10-30T14:46:25;101389.63;;;19.92;67.95
42105;BME280;61464;51.472;5.712;2022-10-30T14:49:24;101388.59;;;19.86;68.16
42105;BME280;61464;51.472;5.712;2022-10-30T14:52:22;101391.66;;;19.83;68.67
42105;BME280;61464;51.472;5.712;2022-10-30T15:00:40;101394.84;;;19.52;69.43